Terminal Aerodrome Forecast
Issued by NWS

Current Version | Previous Version | Text Only | Print | Product List | Glossary On
Versions: 1 2 3 4 5 6 7 8 9 10 11 12 13 14 15 16 17 18 19 20 21
000
FTUS41 KGYX 231733
TAFPSM
TAF
KPSM 231733Z 2318/2418 14008KT P6SM SCT090
     FM240100 20010KT 6SM HZ SCT040 BKN100
     FM240900 19006KT 5SM SHRA BR BKN015
     FM241500 28012G18KT P6SM SCT060=

USA.gov is the U.S. government's official web portal to all federal, state and local government web resources and services.